createdAt,value
2023-07-18T00:04:44.292Z,37.73
2023-07-18T00:19:45.989Z,47.33
2023-07-18T00:34:47.677Z,43.90
2023-07-18T00:49:50.629Z,42.63
2023-07-18T01:04:52.330Z,40.77
2023-07-18T01:19:54.159Z,42.53
2023-07-18T01:34:55.899Z,43.83
2023-07-18T01:49:57.609Z,42.17
2023-07-18T02:04:59.791Z,43.17
2023-07-18T02:20:07.187Z,39.37
2023-07-18T02:35:10.261Z,44.67
2023-07-18T02:50:12.081Z,43.73
2023-07-18T03:05:13.746Z,40.17
2023-07-18T03:20:18.708Z,41.43
2023-07-18T03:35:20.574Z,39.07
2023-07-18T03:50:22.421Z,42.00
2023-07-18T04:05:24.170Z,36.70
2023-07-18T04:20:25.863Z,39.33
2023-07-18T04:35:27.669Z,42.57
2023-07-18T04:50:30.302Z,46.33
2023-07-18T05:05:32.240Z,45.93
2023-07-18T05:20:33.892Z,50.67
2023-07-18T05:35:35.813Z,49.17
2023-07-18T05:50:37.529Z,52.70
2023-07-18T06:05:39.340Z,51.17
2023-07-18T06:20:42.747Z,55.87
2023-07-18T06:35:52.798Z,59.80
2023-07-18T06:50:57.670Z,60.20
2023-07-18T07:05:59.498Z,63.27
2023-07-18T07:21:01.717Z,56.60
2023-07-18T07:36:03.517Z,65.17
2023-07-18T07:51:05.278Z,63.03
2023-07-18T08:06:07.015Z,61.80
2023-07-18T08:21:08.740Z,61.97
2023-07-18T08:36:10.616Z,59.87
2023-07-18T08:51:13.670Z,65.57
2023-07-18T09:06:19.832Z,69.03
2023-07-18T09:21:23.727Z,60.37
2023-07-18T09:36:26.286Z,69.70
2023-07-18T09:51:34.015Z,65.07
2023-07-18T10:06:36.721Z,64.63
2023-07-18T10:21:38.867Z,64.07
2023-07-18T10:36:40.927Z,69.13
2023-07-18T10:51:43.129Z,67.97
2023-07-18T11:06:51.431Z,62.10
2023-07-18T11:21:53.179Z,66.47
2023-07-18T11:36:54.893Z,65.77
2023-07-18T11:51:56.527Z,69.43
2023-07-18T12:06:58.885Z,68.87
2023-07-18T12:22:00.688Z,65.67
2023-07-18T12:37:02.425Z,66.50
2023-07-18T12:52:07.971Z,73.03
2023-07-18T13:07:09.757Z,65.33
2023-07-18T13:22:13.610Z,68.50
2023-07-18T13:37:15.615Z,65.40
2023-07-18T13:52:17.358Z,63.00
2023-07-18T14:07:19.434Z,64.77
2023-07-18T14:22:21.259Z,65.40
2023-07-18T14:37:22.894Z,67.47
2023-07-18T14:52:24.679Z,66.90
2023-07-18T15:07:27.802Z,70.30
2023-07-18T15:22:29.556Z,65.43
2023-07-18T15:37:34.704Z,61.57
2023-07-18T15:52:36.371Z,64.73
2023-07-18T16:07:38.042Z,58.73
2023-07-18T16:22:46.241Z,68.90
2023-07-18T16:37:48.041Z,65.90
2023-07-18T16:52:50.011Z,66.57
2023-07-18T17:07:52.157Z,63.40
2023-07-18T17:22:54.673Z,58.27
2023-07-18T17:37:56.497Z,64.57
2023-07-18T17:52:58.264Z,60.10
2023-07-18T18:08:00.550Z,58.23
2023-07-18T18:23:02.499Z,59.27
2023-07-18T18:38:05.556Z,53.13
2023-07-18T18:53:07.995Z,53.37
2023-07-18T19:08:09.751Z,56.27
2023-07-18T19:23:11.574Z,57.67
2023-07-18T19:38:13.411Z,57.33
2023-07-18T19:53:15.192Z,55.77
2023-07-18T20:08:16.904Z,55.63
2023-07-18T20:23:18.605Z,57.23
2023-07-18T20:38:20.297Z,52.20
2023-07-18T20:53:22.877Z,50.37
2023-07-18T21:08:24.594Z,54.87
2023-07-18T21:23:26.347Z,42.30
2023-07-18T21:38:29.260Z,48.20
2023-07-18T21:53:31.009Z,51.53
2023-07-18T22:08:32.717Z,51.13
2023-07-18T22:23:34.451Z,50.47
2023-07-18T22:38:36.231Z,49.43
2023-07-18T22:53:37.877Z,49.13
2023-07-18T23:08:39.600Z,47.70
2023-07-18T23:23:41.321Z,46.53
2023-07-18T23:38:43.098Z,50.53
2023-07-18T23:53:44.806Z,51.27
